createdAt,value
2022-08-19T00:03:06.514Z,0.00
2022-08-19T00:08:06.439Z,0.00
2022-08-19T00:13:06.376Z,0.00
2022-08-19T00:18:06.302Z,0.00
2022-08-19T00:23:06.242Z,0.00
2022-08-19T00:28:06.172Z,0.00
2022-08-19T00:33:06.121Z,0.00
2022-08-19T00:38:06.042Z,0.00
2022-08-19T00:43:05.996Z,0.00
2022-08-19T00:48:05.919Z,0.00
2022-08-19T00:53:05.857Z,0.00
2022-08-19T00:58:05.795Z,0.00
2022-08-19T01:03:05.736Z,0.00
2022-08-19T01:08:05.666Z,0.00
2022-08-19T01:13:05.608Z,0.00
2022-08-19T01:18:05.526Z,0.00
2022-08-19T01:23:05.469Z,0.00
2022-08-19T01:28:10.904Z,0.00
2022-08-19T01:33:05.347Z,0.00
2022-08-19T01:38:05.275Z,0.00
2022-08-19T01:43:05.210Z,0.00
2022-08-19T01:48:05.148Z,0.00
2022-08-19T01:53:06.922Z,0.00
2022-08-19T01:58:05.016Z,0.00
2022-08-19T02:03:04.959Z,0.00
2022-08-19T02:08:04.886Z,0.00
2022-08-19T02:13:04.832Z,0.00
2022-08-19T02:18:04.764Z,0.00
2022-08-19T02:23:04.699Z,0.00
2022-08-19T02:28:04.621Z,0.00
2022-08-19T02:33:04.571Z,0.00
2022-08-19T02:38:04.489Z,0.00
2022-08-19T02:43:04.434Z,0.00
2022-08-19T02:48:05.386Z,0.00
2022-08-19T02:53:04.302Z,0.00
2022-08-19T02:58:04.248Z,0.00
2022-08-19T03:03:04.174Z,0.00
2022-08-19T03:08:04.119Z,0.00
2022-08-19T03:13:04.714Z,0.00
2022-08-19T03:18:03.973Z,0.00
2022-08-19T03:23:03.905Z,0.00
2022-08-19T03:28:03.845Z,0.00
2022-08-19T03:33:03.773Z,0.00
2022-08-19T03:38:03.715Z,0.00
2022-08-19T03:43:03.964Z,0.00
2022-08-19T03:48:03.605Z,0.00
2022-08-19T03:53:03.528Z,0.00
2022-08-19T03:58:03.581Z,0.00
2022-08-19T04:03:03.588Z,0.00
2022-08-19T04:08:03.339Z,0.00
2022-08-19T04:13:03.276Z,0.00
2022-08-19T04:18:03.215Z,0.00
2022-08-19T04:23:03.128Z,0.00
2022-08-19T04:28:03.071Z,5.62
2022-08-19T04:33:03.006Z,5.62
2022-08-19T04:38:02.941Z,11.25
2022-08-19T04:43:02.886Z,16.87
2022-08-19T04:48:26.255Z,22.50
2022-08-19T04:53:03.769Z,22.50
2022-08-19T04:58:02.686Z,28.12
2022-08-19T05:03:02.608Z,28.12
2022-08-19T05:08:02.552Z,33.75
2022-08-19T05:13:02.492Z,33.75
2022-08-19T05:18:02.432Z,45.00
2022-08-19T05:23:02.349Z,56.25
2022-08-19T05:28:02.325Z,56.25
2022-08-19T05:33:02.331Z,73.12
2022-08-19T05:38:02.423Z,73.12
2022-08-19T05:43:02.388Z,78.75
2022-08-19T05:48:02.333Z,73.12
2022-08-19T05:53:02.361Z,84.37
2022-08-19T05:58:01.904Z,90.00
2022-08-19T06:03:01.866Z,84.37
2022-08-19T06:08:01.783Z,73.12
2022-08-19T06:13:01.708Z,84.37
2022-08-19T06:18:01.656Z,112.50
2022-08-19T06:23:01.573Z,67.50
2022-08-19T06:28:17.532Z,61.87
2022-08-19T06:33:02.673Z,61.87
2022-08-19T06:38:01.395Z,56.25
2022-08-19T06:43:01.894Z,67.50
2022-08-19T06:48:01.570Z,61.87
2022-08-19T06:53:01.501Z,45.00
2022-08-19T06:58:01.129Z,39.37
2022-08-19T07:03:06.112Z,39.37
2022-08-19T07:08:04.891Z,50.62
2022-08-19T07:13:00.925Z,56.25
2022-08-19T07:18:01.036Z,61.87
2022-08-19T07:23:01.050Z,73.12
2022-08-19T07:28:01.387Z,90.00
2022-08-19T07:33:00.670Z,101.25
2022-08-19T07:38:00.632Z,112.50
2022-08-19T07:43:00.536Z,112.50
2022-08-19T07:48:00.870Z,118.12
2022-08-19T07:53:00.419Z,118.12
2022-08-19T07:58:00.355Z,135.00
2022-08-19T08:03:00.291Z,151.87
2022-08-19T08:08:00.231Z,163.12
2022-08-19T08:13:09.103Z,151.87
2022-08-19T08:18:00.099Z,163.12
2022-08-19T08:23:00.021Z,163.12
2022-08-19T08:27:59.976Z,174.37
2022-08-19T08:32:59.902Z,168.75
2022-08-19T08:37:59.859Z,191.25
2022-08-19T08:47:59.715Z,196.87
2022-08-19T08:52:59.653Z,196.87
2022-08-19T08:57:59.586Z,196.87
2022-08-19T09:02:59.514Z,196.87
2022-08-19T09:07:59.455Z,191.25
2022-08-19T09:12:59.384Z,185.62
2022-08-19T09:17:59.317Z,202.50
2022-08-19T09:22:59.246Z,208.12
2022-08-19T09:27:59.435Z,180.00
2022-08-19T09:32:59.123Z,191.25
2022-08-19T09:37:59.740Z,196.87
2022-08-19T09:42:58.988Z,202.50
2022-08-19T09:47:58.925Z,208.12
2022-08-19T09:52:58.853Z,202.50
2022-08-19T09:57:58.804Z,185.62
2022-08-19T10:02:58.737Z,185.62
2022-08-19T10:07:58.677Z,174.37
2022-08-19T10:12:58.606Z,196.87
2022-08-19T10:17:58.782Z,225.00
2022-08-19T10:22:58.467Z,258.75
2022-08-19T10:27:58.418Z,225.00
2022-08-19T10:32:58.333Z,241.87
2022-08-19T10:38:01.958Z,331.87
2022-08-19T10:42:58.210Z,399.37
2022-08-19T10:47:58.155Z,500.62
2022-08-19T10:52:58.076Z,410.62
2022-08-19T10:58:02.451Z,348.75
2022-08-19T11:02:57.951Z,258.75
2022-08-19T11:07:57.900Z,213.75
2022-08-19T11:12:57.816Z,264.37
2022-08-19T11:17:57.761Z,253.12
2022-08-19T11:22:57.700Z,320.62
2022-08-19T11:27:57.641Z,241.87
2022-08-19T11:32:57.556Z,196.87
2022-08-19T11:37:57.510Z,213.75
2022-08-19T11:42:57.439Z,202.50
2022-08-19T11:47:57.369Z,225.00
2022-08-19T11:52:57.297Z,292.50
2022-08-19T11:57:57.242Z,354.37
2022-08-19T12:02:57.177Z,461.25
2022-08-19T12:07:57.123Z,506.25
2022-08-19T12:12:58.787Z,652.50
2022-08-19T12:17:56.999Z,877.50
2022-08-19T12:22:56.913Z,1012.50
2022-08-19T12:27:57.777Z,967.50
2022-08-19T12:32:56.781Z,967.50
2022-08-19T12:37:57.234Z,922.50
2022-08-19T12:42:56.666Z,939.37
2022-08-19T12:47:56.727Z,787.50
2022-08-19T12:52:56.539Z,922.50
2022-08-19T12:57:56.475Z,945.00
2022-08-19T13:02:56.399Z,1012.50
2022-08-19T13:07:56.552Z,973.12
2022-08-19T13:12:56.261Z,911.25
2022-08-19T13:17:56.601Z,1040.62
2022-08-19T13:22:56.139Z,871.87
2022-08-19T13:27:56.131Z,731.25
2022-08-19T13:32:56.014Z,691.87
2022-08-19T13:37:56.074Z,618.75
2022-08-19T13:42:55.872Z,421.87
2022-08-19T13:47:59.520Z,444.37
2022-08-19T13:52:55.738Z,416.25
2022-08-19T13:57:56.056Z,416.25
2022-08-19T14:02:55.619Z,461.25
2022-08-19T14:07:55.842Z,517.50
2022-08-19T14:12:55.476Z,618.75
2022-08-19T14:17:55.648Z,675.00
2022-08-19T14:22:55.344Z,675.00
2022-08-19T14:27:55.539Z,635.62
2022-08-19T14:32:55.213Z,568.12
2022-08-19T14:37:55.157Z,585.00
2022-08-19T14:42:55.084Z,613.12
2022-08-19T14:47:55.183Z,652.50
2022-08-19T14:52:55.170Z,635.62
2022-08-19T14:57:54.971Z,607.50
2022-08-19T15:02:54.994Z,466.87
2022-08-19T15:07:55.001Z,365.62
2022-08-19T15:12:55.100Z,337.50
2022-08-19T15:17:54.884Z,337.50
2022-08-19T15:22:54.577Z,320.62
2022-08-19T15:27:54.718Z,331.87
2022-08-19T15:32:54.461Z,309.37
2022-08-19T15:37:54.564Z,241.87
2022-08-19T15:42:54.319Z,253.12
2022-08-19T15:47:54.431Z,292.50
2022-08-19T15:52:54.191Z,264.37
2022-08-19T15:57:54.290Z,202.50
2022-08-19T16:02:54.058Z,185.62
2022-08-19T16:07:54.215Z,168.75
2022-08-19T16:12:54.141Z,140.62
2022-08-19T16:17:56.483Z,140.62
2022-08-19T16:22:53.792Z,163.12
2022-08-19T16:28:06.443Z,185.62
2022-08-19T16:32:54.688Z,191.25
2022-08-19T16:37:53.908Z,174.37
2022-08-19T16:42:53.542Z,146.25
2022-08-19T16:47:53.695Z,123.75
2022-08-19T16:52:53.404Z,101.25
2022-08-19T16:57:53.445Z,84.37
2022-08-19T17:02:53.454Z,73.12
2022-08-19T17:07:53.233Z,67.50
2022-08-19T17:12:53.238Z,67.50
2022-08-19T17:17:53.189Z,61.87
2022-08-19T17:22:53.008Z,50.62
2022-08-19T17:27:53.153Z,39.37
2022-08-19T17:32:52.877Z,39.37
2022-08-19T17:37:52.962Z,45.00
2022-08-19T17:42:52.747Z,39.37
2022-08-19T17:47:52.699Z,33.75
2022-08-19T17:52:52.617Z,28.12
2022-08-19T17:57:52.561Z,16.87
2022-08-19T18:02:52.494Z,11.25
2022-08-19T18:07:52.429Z,11.25
2022-08-19T18:12:52.352Z,11.25
2022-08-19T18:17:52.322Z,5.62
2022-08-19T18:22:52.239Z,5.62
2022-08-19T18:27:52.173Z,0.00
2022-08-19T18:32:52.103Z,0.00
2022-08-19T18:37:52.041Z,0.00
2022-08-19T18:42:51.964Z,0.00
2022-08-19T18:47:51.912Z,0.00
2022-08-19T18:52:51.847Z,0.00
2022-08-19T18:57:52.937Z,0.00
2022-08-19T19:02:51.705Z,0.00
2022-08-19T19:07:51.649Z,0.00
2022-08-19T19:12:51.587Z,0.00
2022-08-19T19:17:51.590Z,0.00
2022-08-19T19:22:51.449Z,0.00
2022-08-19T19:27:51.421Z,0.00
2022-08-19T19:32:51.318Z,0.00
2022-08-19T19:37:51.260Z,0.00
2022-08-19T19:42:51.189Z,0.00
2022-08-19T19:47:51.199Z,0.00
2022-08-19T19:52:51.074Z,0.00
2022-08-19T19:57:51.081Z,0.00
2022-08-19T20:02:51.138Z,0.00
2022-08-19T20:07:50.899Z,0.00
2022-08-19T20:12:50.815Z,0.00
2022-08-19T20:17:50.800Z,0.00
2022-08-19T20:22:50.673Z,0.00
2022-08-19T20:27:50.621Z,0.00
2022-08-19T20:32:50.564Z,0.00
2022-08-19T20:37:52.844Z,0.00
2022-08-19T20:42:50.419Z,0.00
2022-08-19T20:47:50.359Z,0.00
2022-08-19T20:52:53.670Z,0.00
2022-08-19T20:57:50.225Z,0.00
2022-08-19T21:02:50.167Z,0.00
2022-08-19T21:07:50.196Z,0.00
2022-08-19T21:12:50.034Z,0.00
2022-08-19T21:17:49.981Z,0.00
2022-08-19T21:22:49.892Z,0.00
2022-08-19T21:27:49.863Z,0.00
2022-08-19T21:32:52.489Z,0.00
2022-08-19T21:37:49.705Z,0.00
2022-08-19T21:42:49.637Z,0.00
2022-08-19T21:47:49.588Z,0.00
2022-08-19T21:52:49.510Z,0.00
2022-08-19T21:57:49.444Z,0.00
2022-08-19T22:02:49.376Z,0.00
2022-08-19T22:07:49.318Z,0.00
2022-08-19T22:12:51.636Z,0.00
2022-08-19T22:17:49.233Z,0.00
2022-08-19T22:22:49.114Z,0.00
2022-08-19T22:27:49.204Z,0.00
2022-08-19T22:32:48.990Z,0.00
2022-08-19T22:37:48.992Z,0.00
2022-08-19T22:42:48.857Z,0.00
2022-08-19T22:47:48.809Z,0.00
2022-08-19T22:52:52.170Z,0.00
2022-08-19T22:57:48.661Z,0.00
2022-08-19T23:02:51.889Z,0.00
2022-08-19T23:07:54.064Z,0.00
2022-08-19T23:12:48.441Z,0.00
2022-08-19T23:17:48.382Z,0.00
2022-08-19T23:22:48.305Z,0.00
2022-08-19T23:27:48.255Z,0.00
2022-08-19T23:32:48.179Z,0.00
2022-08-19T23:37:48.120Z,0.00
2022-08-19T23:42:48.032Z,0.00
2022-08-19T23:47:48.032Z,0.00
2022-08-19T23:52:47.900Z,0.00
2022-08-19T23:57:47.855Z,0.00
